Time;durP1;ratioP1;P1;durP2;ratioP2;P2;SDS_P1;SDS_P2;PMS_P1;PMS_P2;Temp;Humidity;BMP_temperature;BMP_pressure;BME280_temperature;BME280_humidity;BME280_pressure;Samples;Min_cycle;Max_cycle;Signal;HPM_P1;HPM_P2
2022/07/31 00:00:58;;;;;;;5.88;5.30;;;18.60;99.90;;;;;;4938793;28;94482;-32
2022/07/31 00:03:24;;;;;;;6.07;5.53;;;18.60;99.90;;;;;;4938848;28;93921;-33
2022/07/31 00:05:49;;;;;;;5.20;4.70;;;18.60;99.90;;;;;;4938758;28;93636;-33
2022/07/31 00:08:15;;;;;;;5.95;5.45;;;18.60;99.90;;;;;;4939017;28;93104;-30
2022/07/31 00:10:40;;;;;;;12.32;5.82;;;18.60;99.90;;;;;;4938644;28;95533;-30
2022/07/31 00:13:06;;;;;;;6.97;6.30;;;18.50;99.90;;;;;;4937761;28;94733;-33
2022/07/31 00:15:31;;;;;;;6.22;5.55;;;18.50;99.90;;;;;;4977009;22;94408;-30
2022/07/31 00:17:57;;;;;;;5.20;4.75;;;18.50;99.90;;;;;;4938517;28;93327;-31
2022/07/31 00:20:23;;;;;;;7.10;6.47;;;18.50;99.90;;;;;;4938514;28;92284;-34
2022/07/31 00:22:49;;;;;;;7.45;5.68;;;18.40;99.90;;;;;;4937856;28;94705;-32
2022/07/31 00:25:15;;;;;;;5.97;5.30;;;18.40;99.90;;;;;;4937883;28;94525;-35
2022/07/31 00:27:41;;;;;;;8.82;4.78;;;18.40;99.90;;;;;;4939309;28;92407;-30
2022/07/31 00:30:08;;;;;;;8.13;6.13;;;18.40;99.90;;;;;;4938174;28;94343;-31
2022/07/31 00:32:34;;;;;;;6.35;5.30;;;18.30;99.90;;;;;;4938545;28;94779;-32
2022/07/31 00:35:00;;;;;;;5.63;5.13;;;18.30;99.90;;;;;;4937767;28;94436;-34
2022/07/31 00:37:26;;;;;;;6.60;5.22;;;18.30;99.90;;;;;;4937553;28;94399;-31
2022/07/31 00:39:53;;;;;;;5.22;4.72;;;18.30;99.90;;;;;;4938271;28;92402;-32
2022/07/31 00:42:23;;;;;;;5.22;4.72;;;18.20;99.90;;;;;;4937718;28;95531;-32
2022/07/31 00:44:49;;;;;;;6.65;4.95;;;18.20;99.90;;;;;;4938028;28;94399;-32
2022/07/31 00:47:16;;;;;;;5.13;4.38;;;18.20;99.90;;;;;;4938071;28;92812;-31
2022/07/31 00:49:42;;;;;;;7.43;4.90;;;18.10;99.90;;;;;;4938147;28;93399;-33
2022/07/31 00:52:08;;;;;;;7.90;4.47;;;18.10;99.90;;;;;;4937746;28;93959;-32
2022/07/31 00:54:34;;;;;;;5.07;4.68;;;18.10;99.90;;;;;;4937689;28;93905;-36
2022/07/31 00:57:00;;;;;;;5.30;4.75;;;18.10;99.90;;;;;;4938630;28;94410;-32
2022/07/31 00:59:29;;;;;;;4.95;4.55;;;18.10;99.90;;;;;;4935336;28;93215;-34
2022/07/31 01:01:56;;;;;;;6.65;4.00;;;18.10;99.90;;;;;;4937085;28;95213;-32
2022/07/31 01:04:22;;;;;;;4.38;3.92;;;18.00;99.90;;;;;;4937239;28;94549;-35
2022/07/31 01:06:48;;;;;;;6.40;3.80;;;18.00;99.90;;;;;;4938114;28;94280;-32
2022/07/31 01:09:13;;;;;;;4.78;4.35;;;18.00;99.90;;;;;;4937604;28;93068;-31
2022/07/31 01:11:56;;;;;;;5.80;5.30;;;18.00;99.90;;;;;;4937331;28;94811;-32
2022/07/31 01:14:28;;;;;;;6.53;5.07;;;18.00;99.90;;;;;;4937373;28;94775;-33
2022/07/31 01:16:55;;;;;;;5.63;4.05;;;18.00;99.90;;;;;;4937708;28;91390;-34
2022/07/31 01:19:39;;;;;;;4.63;4.22;;;18.00;99.90;;;;;;4937376;28;93844;-35
2022/07/31 01:22:26;;;;;;;4.35;3.95;;;18.00;99.90;;;;;;4938128;28;94647;-32
2022/07/31 01:25:10;;;;;;;4.60;4.03;;;17.90;99.90;;;;;;4936224;28;95919;-31
2022/07/31 01:27:41;;;;;;;4.63;4.22;;;17.80;99.90;;;;;;4938203;28;93965;-32
2022/07/31 01:30:07;;;;;;;4.93;3.92;;;17.80;99.90;;;;;;4937432;28;94535;-32
2022/07/31 01:32:37;;;;;;;4.18;3.75;;;17.70;99.90;;;;;;4937418;28;94755;-33
2022/07/31 01:35:24;;;;;;;6.53;4.70;;;17.70;99.90;;;;;;4937554;28;94707;-33
2022/07/31 01:37:55;;;;;;;4.57;4.00;;;17.60;99.90;;;;;;4935384;28;94037;-34
2022/07/31 01:40:36;;;;;;;4.05;3.70;;;17.50;99.90;;;;;;4937470;28;94238;-31
2022/07/31 01:43:06;;;;;;;3.25;2.95;;;17.50;99.90;;;;;;4937616;28;93960;-33
2022/07/31 01:45:35;;;;;;;3.60;3.13;;;17.50;99.90;;;;;;4937506;28;94100;-31
2022/07/31 01:48:02;;;;;;;5.22;3.60;;;17.50;99.90;;;;;;4937376;28;93039;-32
2022/07/31 01:50:30;;;;;;;6.47;3.67;;;17.50;99.90;;;;;;4936073;28;94245;-31
2022/07/31 01:52:57;;;;;;;10.27;3.45;;;17.50;99.90;;;;;;4937537;28;96317;-30
2022/07/31 01:55:24;;;;;;;4.57;3.58;;;17.50;99.90;;;;;;4936771;28;94435;-31
2022/07/31 01:57:50;;;;;;;3.75;3.45;;;17.50;99.90;;;;;;4937136;28;94601;-33
2022/07/31 02:00:17;;;;;;;3.88;3.47;;;17.50;99.90;;;;;;4936660;28;92170;-33
2022/07/31 02:02:46;;;;;;;5.45;3.45;;;17.50;99.90;;;;;;4936421;28;96319;-32
2022/07/31 02:05:12;;;;;;;;;;;17.50;99.90;;;;;;4937077;28;94484;-34
2022/07/31 02:07:39;;;;;;;3.65;3.35;;;17.40;99.90;;;;;;4939805;28;91653;-30
2022/07/31 02:10:08;;;;;;;4.75;3.22;;;17.40;99.90;;;;;;4937375;28;93261;-35
2022/07/31 02:12:35;;;;;;;3.58;3.28;;;17.40;99.90;;;;;;4940491;28;94991;-33
2022/07/31 02:15:06;;;;;;;3.90;3.33;;;17.50;99.90;;;;;;4939268;28;94986;-32
2022/07/31 02:17:33;;;;;;;4.78;3.72;;;17.50;99.90;;;;;;4940160;28;93427;-32
2022/07/31 02:20:02;;;;;;;7.72;3.92;;;17.60;99.90;;;;;;4940280;28;93844;-30
2022/07/31 02:22:28;;;;;;;4.05;3.60;;;17.60;99.90;;;;;;4939624;28;95231;-32
2022/07/31 02:24:54;;;;;;;4.03;3.40;;;17.60;99.90;;;;;;4940360;28;95154;-31
2022/07/31 02:27:20;;;;;;;4.20;3.80;;;17.60;99.90;;;;;;4939969;28;92586;-32
2022/07/31 02:29:47;;;;;;;4.70;3.40;;;17.70;99.90;;;;;;4940006;28;93426;-33
2022/07/31 02:32:13;;;;;;;3.45;3.22;;;17.70;99.90;;;;;;4940463;28;94334;-30
2022/07/31 02:34:41;;;;;;;5.05;3.08;;;17.70;99.90;;;;;;4939930;28;93318;-31
2022/07/31 02:37:07;;;;;;;3.97;3.67;;;17.70;99.90;;;;;;4939653;28;94278;-34
2022/07/31 02:39:34;;;;;;;5.60;4.00;;;17.80;99.90;;;;;;4939688;28;94094;-32
2022/07/31 02:42:00;;;;;;;5.35;3.67;;;17.80;99.90;;;;;;4939686;28;96298;-32
2022/07/31 02:44:30;;;;;;;4.35;3.95;;;17.80;99.90;;;;;;4939023;28;93394;-32
2022/07/31 02:46:56;;;;;;;5.38;3.78;;;17.80;99.90;;;;;;4939865;28;93262;-34
2022/07/31 02:49:22;;;;;;;4.18;3.65;;;17.80;99.90;;;;;;4937818;28;93300;-32
2022/07/31 02:51:48;;;;;;;5.47;3.45;;;17.80;99.90;;;;;;4939317;28;94609;-34
2022/07/31 02:54:14;;;;;;;4.35;3.53;;;17.80;99.90;;;;;;4939546;28;94416;-35
2022/07/31 02:56:40;;;;;;;3.35;3.03;;;17.80;99.90;;;;;;4940561;28;93622;-31
2022/07/31 02:59:06;;;;;;;5.50;3.92;;;17.80;99.90;;;;;;4939355;28;95051;-34
2022/07/31 03:01:36;;;;;;;4.80;3.97;;;17.80;99.90;;;;;;4939944;28;95353;-29
2022/07/31 03:04:01;;;;;;;3.75;3.33;;;17.80;99.90;;;;;;4939263;28;94544;-32
2022/07/31 03:06:27;;;;;;;3.88;3.42;;;17.80;99.90;;;;;;4939232;28;92212;-33
2022/07/31 03:08:52;;;;;;;4.30;3.58;;;17.80;99.90;;;;;;4939427;28;93934;-34
2022/07/31 03:11:18;;;;;;;5.50;3.88;;;17.80;99.90;;;;;;4939354;28;94696;-34
2022/07/31 03:13:45;;;;;;;4.05;3.75;;;17.90;99.90;;;;;;4938993;28;94489;-32
2022/07/31 03:16:12;;;;;;;4.38;3.97;;;17.90;99.90;;;;;;4939524;28;93421;-34
2022/07/31 03:18:39;;;;;;;4.70;4.13;;;17.90;99.90;;;;;;4939246;28;94084;-33
2022/07/31 03:21:07;;;;;;;4.32;3.85;;;17.90;99.90;;;;;;4939134;28;94744;-33
2022/07/31 03:23:35;;;;;;;;;;;17.90;99.90;;;;;;4938621;28;94169;-32
2022/07/31 03:26:01;;;;;;;4.90;4.47;;;18.00;99.90;;;;;;4941326;28;93976;-34
2022/07/31 03:28:27;;;;;;;4.72;3.70;;;18.00;99.90;;;;;;4938813;28;94037;-31
2022/07/31 03:30:54;;;;;;;5.82;4.03;;;18.00;99.90;;;;;;4938381;28;95634;-29
2022/07/31 03:33:21;;;;;;;5.38;4.65;;;18.00;99.90;;;;;;4939060;28;94747;-33
2022/07/31 03:35:46;;;;;;;5.85;3.95;;;18.00;99.90;;;;;;4939529;28;94516;-31
2022/07/31 03:38:12;;;;;;;4.28;3.90;;;18.10;99.90;;;;;;4938653;28;92784;-31
2022/07/31 03:40:38;;;;;;;5.25;4.63;;;18.10;99.90;;;;;;4938893;28;94561;-32
2022/07/31 03:43:05;;;;;;;4.85;4.15;;;18.10;99.90;;;;;;4939265;28;94618;-33
2022/07/31 03:45:33;;;;;;;4.75;4.15;;;18.10;99.90;;;;;;4939762;28;92589;-30
2022/07/31 03:47:59;;;;;;;4.63;4.22;;;18.00;99.90;;;;;;4939142;28;92143;-34
2022/07/31 03:50:25;;;;;;;5.47;4.45;;;18.00;99.90;;;;;;4938723;28;94671;-31
2022/07/31 03:52:51;;;;;;;4.53;4.03;;;18.00;99.90;;;;;;4938053;28;94753;-31
2022/07/31 03:55:17;;;;;;;6.03;4.38;;;18.00;99.90;;;;;;4939071;28;92088;-32
2022/07/31 03:57:44;;;;;;;4.88;4.43;;;18.00;99.90;;;;;;4938950;28;93891;-31
2022/07/31 04:00:10;;;;;;;6.03;4.75;;;18.00;99.90;;;;;;4937685;28;95152;-33
2022/07/31 04:02:36;;;;;;;8.10;5.00;;;18.00;99.90;;;;;;4939013;28;94937;-30
2022/07/31 04:05:03;;;;;;;12.27;5.10;;;18.00;99.90;;;;;;4938506;28;94140;-33
2022/07/31 04:07:28;;;;;;;7.85;5.68;;;17.90;99.90;;;;;;4939021;28;93279;-33
2022/07/31 04:09:54;;;;;;;5.78;5.38;;;17.90;99.90;;;;;;4939113;28;93754;-32
2022/07/31 04:12:19;;;;;;;4.88;4.47;;;17.90;99.90;;;;;;4937444;28;93870;-33
2022/07/31 04:14:45;;;;;;;7.72;5.13;;;17.90;99.90;;;;;;4939246;28;94674;-30
2022/07/31 04:17:11;;;;;;;4.88;4.32;;;17.90;99.90;;;;;;4937483;28;93165;-31
2022/07/31 04:19:36;;;;;;;4.90;4.50;;;17.90;99.90;;;;;;4938977;28;94638;-33
2022/07/31 04:22:02;;;;;;;5.35;4.85;;;17.90;99.90;;;;;;4937340;28;94510;-32
2022/07/31 04:24:28;;;;;;;4.88;4.45;;;17.90;99.90;;;;;;4938147;28;94113;-33
2022/07/31 04:26:54;;;;;;;5.80;5.22;;;17.90;99.90;;;;;;4938437;28;93179;-32
2022/07/31 04:29:20;;;;;;;6.22;4.60;;;17.90;99.90;;;;;;4937730;28;94617;-30
2022/07/31 04:31:46;;;;;;;8.57;4.75;;;17.90;99.90;;;;;;4938309;28;94646;-34
2022/07/31 04:34:12;;;;;;;5.60;4.72;;;17.90;99.90;;;;;;4937790;28;92440;-32
2022/07/31 04:36:38;;;;;;;6.43;5.82;;;17.90;99.90;;;;;;4938893;28;93031;-32
2022/07/31 04:39:04;;;;;;;5.28;4.78;;;17.90;99.90;;;;;;4937942;28;94987;-31
2022/07/31 04:41:29;;;;;;;5.20;4.72;;;18.00;99.90;;;;;;4937193;28;95409;-32
2022/07/31 04:43:56;;;;;;;5.53;5.07;;;18.00;99.90;;;;;;4939003;28;94967;-33
2022/07/31 04:46:22;;;;;;;6.53;5.15;;;18.10;99.90;;;;;;4937624;28;94375;-31
2022/07/31 04:48:48;;;;;;;7.47;5.10;;;18.10;99.90;;;;;;4937168;28;94691;-32
2022/07/31 04:51:18;;;;;;;9.07;5.88;;;18.20;99.90;;;;;;4938280;28;93360;-31
2022/07/31 04:53:45;;;;;;;5.53;4.40;;;18.30;99.90;;;;;;4938274;28;92995;-31
2022/07/31 04:58:55;;;;;;;15.93;4.85;;;18.50;99.90;;;;;;4938522;28;93818;-34
2022/07/31 05:01:21;;;;;;;6.80;5.78;;;18.50;99.90;;;;;;4937764;28;94060;-30
2022/07/31 05:03:46;;;;;;;5.25;4.75;;;18.50;99.90;;;;;;4937390;28;93422;-30
2022/07/31 05:06:12;;;;;;;5.72;5.07;;;18.50;99.90;;;;;;4937800;28;95196;-32
2022/07/31 05:08:38;;;;;;;6.57;5.00;;;18.50;99.90;;;;;;4937270;28;96025;-32
2022/07/31 05:11:23;;;;;;;5.70;4.93;;;18.50;99.90;;;;;;4937181;28;94316;-35
2022/07/31 05:13:53;;;;;;;7.35;4.97;;;18.40;99.90;;;;;;4937954;28;92631;-31
2022/07/31 05:16:20;;;;;;;5.80;4.97;;;18.40;99.90;;;;;;4937226;28;92244;-32
2022/07/31 05:18:46;;;;;;;5.07;4.65;;;18.50;99.90;;;;;;4937127;28;94817;-36
2022/07/31 05:21:13;;;;;;;9.18;4.63;;;18.50;99.90;;;;;;4937089;28;94583;-34
2022/07/31 05:23:39;;;;;;;6.20;5.53;;;18.50;99.90;;;;;;4937813;28;92677;-36
2022/07/31 05:26:05;;;;;;;7.43;5.07;;;18.50;99.90;;;;;;4937420;28;93241;-30
2022/07/31 05:28:31;;;;;;;5.25;4.75;;;18.50;99.90;;;;;;4937072;28;93612;-34
2022/07/31 05:30:57;;;;;;;5.63;4.38;;;18.60;99.90;;;;;;4936943;28;95074;-35
2022/07/31 05:33:22;;;;;;;4.13;3.72;;;18.70;99.90;;;;;;4936959;28;93791;-33
2022/07/31 05:35:48;;;;;;;4.95;4.28;;;18.70;99.90;;;;;;4937332;28;93524;-32
2022/07/31 05:38:14;;;;;;;4.70;4.38;;;18.80;99.90;;;;;;4936149;28;94286;-34
2022/07/31 05:40:40;;;;;;;6.95;5.25;;;18.90;99.90;;;;;;4936645;28;95070;-32
2022/07/31 05:43:06;;;;;;;5.70;4.63;;;18.90;99.90;;;;;;4937517;28;93658;-33
2022/07/31 05:45:31;;;;;;;4.50;4.03;;;18.90;99.90;;;;;;4938625;28;92921;-32
2022/07/31 05:47:57;;;;;;;5.28;4.05;;;19.00;99.90;;;;;;4941188;28;94560;-33
2022/07/31 05:50:22;;;;;;;5.40;4.57;;;19.00;99.90;;;;;;4939754;28;95005;-31
2022/07/31 05:52:48;;;;;;;7.40;4.28;;;19.00;99.90;;;;;;4941598;28;94391;-33
2022/07/31 05:55:14;;;;;;;5.18;4.68;;;19.10;99.90;;;;;;4939746;28;94146;-34
2022/07/31 05:57:40;;;;;;;4.35;4.05;;;19.10;99.90;;;;;;4940741;28;94745;-32
2022/07/31 06:00:07;;;;;;;4.80;4.35;;;19.10;99.90;;;;;;4939896;28;94878;-31
2022/07/31 06:02:33;;;;;;;4.32;3.88;;;19.20;99.90;;;;;;4940160;28;93329;-30
2022/07/31 06:04:59;;;;;;;5.22;4.65;;;19.20;99.90;;;;;;4939967;28;92218;-30
2022/07/31 06:07:24;;;;;;;4.53;4.15;;;19.20;99.90;;;;;;4940450;28;95572;-31
2022/07/31 06:09:50;;;;;;;4.32;3.95;;;19.20;99.90;;;;;;4939855;28;94805;-30
2022/07/31 06:12:16;;;;;;;6.63;4.55;;;19.30;99.90;;;;;;4940170;28;92616;-33
2022/07/31 06:14:41;;;;;;;9.20;4.90;;;19.30;99.90;;;;;;4939851;28;92924;-33
2022/07/31 06:17:07;;;;;;;5.25;4.50;;;19.40;99.90;;;;;;4939891;28;94727;-31
2022/07/31 06:19:33;;;;;;;8.77;4.47;;;19.40;99.90;;;;;;4940069;28;94967;-31
2022/07/31 06:21:59;;;;;;;6.25;5.00;;;19.50;99.90;;;;;;4940317;28;93357;-30
2022/07/31 06:24:25;;;;;;;6.50;5.20;;;19.50;99.90;;;;;;4939760;28;93755;-32
2022/07/31 06:26:55;;;;;;;6.03;5.15;;;19.50;99.90;;;;;;4939976;28;94744;-30
2022/07/31 06:29:21;;;;;;;4.85;4.53;;;19.60;99.90;;;;;;4939007;28;95702;-31
2022/07/31 06:31:47;;;;;;;5.35;4.57;;;19.70;99.90;;;;;;4940662;28;93863;-34
2022/07/31 06:34:12;;;;;;;4.85;4.43;;;19.70;99.90;;;;;;4939693;28;93143;-32
2022/07/31 06:36:38;;;;;;;5.40;5.00;;;19.70;99.90;;;;;;4939647;28;94920;-34
2022/07/31 06:39:04;;;;;;;4.90;4.47;;;19.70;99.90;;;;;;4939703;28;94156;-31
2022/07/31 06:41:48;;;;;;;5.20;4.80;;;19.70;99.90;;;;;;4938213;28;93868;-32
2022/07/31 06:44:15;;;;;;;4.72;4.25;;;19.70;99.90;;;;;;4939772;28;94410;-33
2022/07/31 06:46:41;;;;;;;8.32;4.88;;;19.60;99.90;;;;;;4939683;28;94793;-31
2022/07/31 06:49:06;;;;;;;7.63;5.43;;;19.70;99.90;;;;;;4938670;28;94932;-32
2022/07/31 06:51:33;;;;;;;7.45;4.88;;;19.70;99.90;;;;;;4939311;28;93040;-33
2022/07/31 06:54:05;;;;;;;5.85;4.53;;;19.60;99.90;;;;;;4939353;28;94380;-31
2022/07/31 06:56:32;;;;;;;7.40;4.25;;;19.70;99.90;;;;;;4939828;28;94394;-31
2022/07/31 06:58:57;;;;;;;5.70;5.15;;;19.70;99.90;;;;;;4939067;28;94568;-32
2022/07/31 07:01:23;;;;;;;4.88;4.43;;;19.80;99.90;;;;;;4939996;28;92507;-35
2022/07/31 07:03:48;;;;;;;5.30;4.80;;;19.80;99.90;;;;;;4939558;28;94471;-31
2022/07/31 07:06:14;;;;;;;5.32;4.82;;;19.80;99.90;;;;;;4939060;28;94779;-31
2022/07/31 07:08:40;;;;;;;7.78;4.43;;;19.80;99.90;;;;;;4939120;28;94721;-30
2022/07/31 07:11:06;;;;;;;5.10;4.60;;;19.80;99.90;;;;;;4938774;28;93913;-34
2022/07/31 07:13:31;;;;;;;5.35;4.85;;;19.90;99.90;;;;;;4939791;28;94266;-30
2022/07/31 07:15:57;;;;;;;4.88;4.47;;;20.00;99.90;;;;;;4938202;28;94762;-30
2022/07/31 07:18:22;;;;;;;5.97;5.15;;;20.00;99.90;;;;;;4939211;28;94757;-35
2022/07/31 07:20:49;;;;;;;5.57;5.03;;;20.00;99.90;;;;;;4939760;28;93330;-31
2022/07/31 07:23:15;;;;;;;5.53;5.03;;;20.10;99.90;;;;;;4940574;28;92155;-31
2022/07/31 07:25:40;;;;;;;6.30;4.70;;;20.10;99.90;;;;;;4943573;28;93486;-31
2022/07/31 07:28:07;;;;;;;5.30;4.82;;;20.20;99.90;;;;;;4940313;28;94360;-32
2022/07/31 07:30:33;;;;;;;5.65;4.93;;;20.20;99.90;;;;;;4938512;28;94429;-33
2022/07/31 07:32:58;;;;;;;5.53;5.13;;;20.30;99.90;;;;;;4941542;28;94890;-32
2022/07/31 07:35:25;;;;;;;9.10;5.63;;;20.30;99.90;;;;;;4938505;28;94860;-32
2022/07/31 07:37:51;;;;;;;5.35;4.85;;;20.30;99.90;;;;;;4921495;28;94242;-33
2022/07/31 07:40:17;;;;;;;6.30;5.72;;;20.40;99.90;;;;;;4938674;28;93912;-31
2022/07/31 07:42:43;;;;;;;6.93;5.13;;;20.40;99.90;;;;;;4938265;28;94388;-33
2022/07/31 07:45:09;;;;;;;5.35;4.88;;;20.40;99.90;;;;;;4938617;28;94729;-32
2022/07/31 07:47:35;;;;;;;8.70;6.38;;;20.40;99.90;;;;;;4938522;28;93299;-30
2022/07/31 07:50:02;;;;;;;5.65;5.15;;;20.40;99.90;;;;;;4939215;28;93807;-33
2022/07/31 07:52:28;;;;;;;6.07;4.93;;;20.40;99.90;;;;;;4938729;28;92995;-30
2022/07/31 07:54:53;;;;;;;6.45;5.65;;;20.40;99.90;;;;;;4938200;28;95099;-32
2022/07/31 07:57:20;;;;;;;5.60;5.03;;;20.40;99.90;;;;;;4938422;28;95598;-32
2022/07/31 07:59:47;;;;;;;5.57;4.97;;;20.40;99.90;;;;;;4938818;28;94803;-31
2022/07/31 08:02:13;;;;;;;7.45;6.20;;;20.40;99.90;;;;;;4937709;28;94614;-31
2022/07/31 08:04:39;;;;;;;6.20;5.70;;;20.40;99.90;;;;;;4938231;28;94661;-31
2022/07/31 08:07:04;;;;;;;11.45;6.18;;;20.50;99.90;;;;;;4938131;28;94205;-31
2022/07/31 08:09:31;;;;;;;5.78;5.28;;;20.50;99.90;;;;;;4938015;28;93706;-33
2022/07/31 08:11:56;;;;;;;5.90;5.32;;;20.60;99.90;;;;;;4938576;28;93577;-30
2022/07/31 08:14:22;;;;;;;8.68;6.75;;;20.60;99.90;;;;;;4937944;28;95020;-31
2022/07/31 08:16:47;;;;;;;7.30;6.60;;;20.70;99.90;;;;;;4937965;28;93736;-33
2022/07/31 08:19:13;;;;;;;7.78;7.07;;;20.80;99.90;;;;;;4938181;28;93994;-32
2022/07/31 08:21:39;;;;;;;9.77;7.15;;;20.90;99.90;;;;;;4937935;28;93596;-34
2022/07/31 08:24:05;;;;;;;9.30;8.48;;;21.00;99.90;;;;;;4937751;28;94797;-32
2022/07/31 08:29:15;;;;;;;9.25;8.35;;;21.20;99.90;;;;;;4938695;28;94077;-30
2022/07/31 08:31:41;;;;;;;12.77;8.68;;;21.20;99.90;;;;;;4938175;28;94919;-31
2022/07/31 08:34:06;;;;;;;15.18;9.07;;;21.30;99.90;;;;;;4938212;28;94693;-31
2022/07/31 08:36:32;;;;;;;10.93;9.43;;;21.30;99.90;;;;;;4938035;28;94870;-32
2022/07/31 08:38:58;;;;;;;12.52;8.90;;;21.30;99.90;;;;;;4938515;28;91802;-33
2022/07/31 08:41:24;;;;;;;9.52;8.63;;;21.30;99.90;;;;;;4937305;28;93064;-31
2022/07/31 08:43:49;;;;;;;10.13;9.23;;;21.40;99.90;;;;;;4937524;28;94561;-32
2022/07/31 08:46:16;;;;;;;9.02;8.30;;;21.40;99.90;;;;;;4936828;28;95886;-34
2022/07/31 08:48:43;;;;;;;12.05;9.30;;;21.40;99.90;;;;;;4937974;28;93118;-31
2022/07/31 08:51:12;;;;;;;9.70;8.80;;;21.50;99.90;;;;;;4936939;28;93141;-33
2022/07/31 08:53:41;;;;;;;9.25;8.40;;;21.50;99.90;;;;;;4937402;28;94650;-33
2022/07/31 08:56:07;;;;;;;10.23;9.07;;;21.50;99.90;;;;;;4937091;28;94780;-36
2022/07/31 08:58:33;;;;;;;9.90;8.80;;;21.50;99.90;;;;;;4937647;28;92128;-35
2022/07/31 09:00:59;;;;;;;9.93;8.93;;;21.60;99.90;;;;;;4938663;28;94802;-33
2022/07/31 09:03:25;;;;;;;10.95;9.68;;;21.60;99.90;;;;;;4937229;28;93948;-35
2022/07/31 09:05:51;;;;;;;11.45;8.63;;;21.60;99.90;;;;;;4937387;28;93613;-33
2022/07/31 09:08:16;;;;;;;9.23;8.38;;;21.60;99.90;;;;;;4938197;28;94320;-32
2022/07/31 09:10:42;;;;;;;9.10;8.18;;;21.60;99.90;;;;;;4937136;28;93141;-34
2022/07/31 09:13:15;;;;;;;9.27;8.07;;;21.60;99.90;;;;;;4936786;28;94915;-36
2022/07/31 09:15:41;;;;;;;10.60;9.45;;;21.60;99.90;;;;;;4935598;28;95201;-32
2022/07/31 09:18:17;;;;;;;7.28;6.63;;;21.60;99.90;;;;;;4952097;28;92869;-32
2022/07/31 09:20:54;;;;;;;8.45;7.30;;;21.50;99.90;;;;;;4950383;28;92768;-29
2022/07/31 09:23:21;;;;;;;9.93;7.90;;;21.50;99.90;;;;;;4951837;28;94896;-31
2022/07/31 09:26:08;;;;;;;8.57;7.63;;;21.50;99.90;;;;;;4951160;28;93263;-30
2022/07/31 09:28:39;;;;;;;9.55;8.55;;;21.40;99.90;;;;;;4952215;28;91412;-30
2022/07/31 09:31:07;;;;;;;9.20;8.35;;;21.30;99.90;;;;;;4943869;28;94722;-30
2022/07/31 09:33:35;;;;;;;16.33;8.32;;;21.20;99.90;;;;;;4936966;28;94684;-30
2022/07/31 09:36:01;;;;;;;8.68;7.90;;;21.10;99.90;;;;;;4935910;28;95432;-32
2022/07/31 09:38:38;;;;;;;12.20;8.63;;;21.00;99.90;;;;;;4943685;28;93124;-32
2022/07/31 09:41:16;;;;;;;10.13;8.88;;;21.00;99.90;;;;;;4945307;28;93653;-34
2022/07/31 09:43:42;;;;;;;9.13;8.23;;;20.90;99.90;;;;;;4941279;28;94424;-32
2022/07/31 09:46:09;;;;;;;9.18;7.38;;;20.80;99.90;;;;;;4934984;28;94829;-34
2022/07/31 09:48:36;;;;;;;9.80;8.48;;;20.80;99.90;;;;;;4939903;28;93508;-33
2022/07/31 09:51:04;;;;;;;10.87;8.70;;;20.80;99.90;;;;;;4938054;28;94357;-33
2022/07/31 09:53:52;;;;;;;11.02;9.98;;;20.70;99.90;;;;;;4943343;28;93145;-33
2022/07/31 09:56:29;;;;;;;10.18;9.23;;;20.70;99.90;;;;;;4943334;28;93684;-33
2022/07/31 09:58:55;;;;;;;11.82;10.55;;;20.70;99.90;;;;;;4944694;28;93379;-33
2022/07/31 10:01:22;;;;;;;16.52;10.52;;;20.70;99.90;;;;;;4943418;28;93973;-33
2022/07/31 10:03:50;;;;;;;15.40;9.93;;;20.70;99.90;;;;;;4940623;28;96653;-35
2022/07/31 10:06:18;;;;;;;11.67;10.07;;;20.70;99.90;;;;;;4939498;28;95711;-33
2022/07/31 10:08:45;;;;;;;;;;;20.70;99.90;;;;;;4940971;28;93220;-34
2022/07/31 10:11:12;;;;;;;12.20;10.98;;;20.70;99.90;;;;;;4943837;28;93043;-34
2022/07/31 10:13:44;;;;;;;11.52;10.43;;;20.80;99.90;;;;;;4937361;28;94432;-35
2022/07/31 10:16:10;;;;;;;11.13;10.02;;;20.90;99.90;;;;;;4930642;28;95450;-33
2022/07/31 10:18:38;;;;;;;12.00;10.90;;;21.00;99.90;;;;;;4933597;28;93584;-32
2022/07/31 10:21:10;;;;;;;14.67;11.97;;;21.10;99.90;;;;;;4935945;28;93178;-36
2022/07/31 10:23:39;;;;;;;11.75;10.68;;;21.10;99.90;;;;;;4942086;28;94746;-34
2022/07/31 10:26:05;;;;;;;11.98;10.73;;;21.10;99.90;;;;;;4936074;28;94777;-37
2022/07/31 10:28:31;;;;;;;16.20;11.25;;;21.10;99.90;;;;;;4935774;28;93614;-33
2022/07/31 10:30:57;;;;;;;12.73;11.48;;;21.10;99.90;;;;;;4940768;28;93298;-35
2022/07/31 10:33:25;;;;;;;14.48;11.50;;;21.00;99.90;;;;;;4945704;28;94568;-34
2022/07/31 10:36:11;;;;;;;11.15;10.15;;;21.00;99.90;;;;;;4943614;28;94281;-36
2022/07/31 10:38:46;;;;;;;10.75;9.80;;;20.90;99.90;;;;;;4918984;28;92929;-33
2022/07/31 10:41:24;;;;;;;10.68;9.77;;;21.00;99.90;;;;;;4936612;28;93143;-33
2022/07/31 10:43:55;;;;;;;18.60;12.45;;;21.10;99.90;;;;;;4940735;28;94769;-34
2022/07/31 10:46:27;;;;;;;15.05;10.38;;;21.20;99.90;;;;;;4941738;28;93691;-35
2022/07/31 10:48:53;;;;;;;13.52;12.07;;;21.30;99.90;;;;;;4938780;28;94224;-32
2022/07/31 10:51:21;;;;;;;14.57;11.40;;;21.40;99.90;;;;;;4938150;28;93396;-34
2022/07/31 10:53:54;;;;;;;;;;;21.50;99.90;;;;;;4934160;28;94814;-35
2022/07/31 10:56:20;;;;;;;10.73;9.63;;;21.50;99.90;;;;;;4937981;28;93751;-33
2022/07/31 10:58:50;;;;;;;11.40;10.40;;;21.50;99.90;;;;;;4937195;28;93466;-33
2022/07/31 11:01:16;;;;;;;11.77;10.60;;;21.50;99.90;;;;;;4935843;28;92439;-34
2022/07/31 11:03:48;;;;;;;10.98;10.05;;;21.50;99.90;;;;;;4918338;28;94676;-35
2022/07/31 11:06:15;;;;;;;10.75;9.75;;;21.50;99.90;;;;;;4935559;28;94608;-33
2022/07/31 11:08:48;;;;;;;11.85;9.57;;;21.60;99.90;;;;;;4937825;28;91456;-34
2022/07/31 11:11:14;;;;;;;14.60;10.98;;;21.60;99.90;;;;;;4936918;28;92806;-32
2022/07/31 11:13:51;;;;;;;11.20;10.20;;;21.60;99.90;;;;;;4936351;28;94752;-33
2022/07/31 11:16:18;;;;;;;13.32;11.13;;;21.60;99.90;;;;;;4935032;28;96007;-34
2022/07/31 11:18:58;;;;;;;11.77;10.63;;;21.70;99.90;;;;;;4936155;28;94215;-33
2022/07/31 11:21:38;;;;;;;12.00;10.80;;;21.70;99.90;;;;;;4935512;28;92150;-33
2022/07/31 11:24:30;;;;;;;13.10;11.73;;;21.70;99.90;;;;;;4936352;28;94925;-35
2022/07/31 11:26:57;;;;;;;13.68;10.48;;;21.70;99.90;;;;;;4933166;28;95626;-33
2022/07/31 11:29:29;;;;;;;12.68;11.48;;;21.70;99.90;;;;;;4936646;28;93317;-34
2022/07/31 11:31:59;;;;;;;12.50;11.27;;;21.70;99.90;;;;;;4936496;28;93021;-32
2022/07/31 11:34:24;;;;;;;16.08;12.32;;;21.60;99.90;;;;;;4936648;28;93960;-35
2022/07/31 11:36:50;;;;;;;12.45;11.10;;;21.60;99.90;;;;;;4934512;28;94342;-32
2022/07/31 11:39:18;;;;;;;12.43;11.13;;;21.50;99.90;;;;;;4935933;28;92619;-33
2022/07/31 11:41:46;;;;;;;15.25;13.85;;;21.40;99.90;;;;;;4935368;28;95231;-33
2022/07/31 11:44:11;;;;;;;15.73;14.37;;;21.40;99.90;;;;;;4934467;28;94768;-33
2022/07/31 11:46:37;;;;;;;15.23;13.73;;;21.40;99.90;;;;;;4936134;28;94040;-34
2022/07/31 11:49:03;;;;;;;15.35;13.95;;;21.30;99.90;;;;;;4936216;28;94670;-31
2022/07/31 11:51:29;;;;;;;17.42;15.05;;;21.30;99.90;;;;;;4923089;28;92557;-33
2022/07/31 11:53:56;;;;;;;22.30;17.17;;;21.30;99.90;;;;;;4935429;28;94485;-36
2022/07/31 11:56:23;;;;;;;18.80;14.07;;;21.30;99.90;;;;;;4935255;28;94755;-33
2022/07/31 11:58:49;;;;;;;18.58;15.45;;;21.30;99.90;;;;;;4935943;28;92288;-36
2022/07/31 12:01:15;;;;;;;16.90;15.13;;;21.30;99.90;;;;;;4934816;28;94101;-35
2022/07/31 12:03:41;;;;;;;16.58;14.93;;;21.10;99.90;;;;;;4933339;28;93734;-37
2022/07/31 12:06:08;;;;;;;19.58;17.48;;;21.00;99.90;;;;;;4934145;28;94532;-32
2022/07/31 12:08:34;;;;;;;16.50;14.77;;;20.90;99.90;;;;;;4935630;28;92791;-36
2022/07/31 12:11:03;;;;;;;15.43;13.85;;;20.80;99.90;;;;;;4936177;28;93861;-33
2022/07/31 12:13:30;;;;;;;17.58;13.48;;;20.70;99.90;;;;;;4934893;28;94678;-35
2022/07/31 12:16:09;;;;;;;15.27;13.73;;;20.40;99.90;;;;;;4965660;22;94722;-32
2022/07/31 12:19:04;;;;;;;16.30;14.65;;;20.10;99.90;;;;;;4935072;28;94180;-32
2022/07/31 12:21:32;;;;;;;17.35;15.63;;;19.90;99.90;;;;;;4921643;28;93314;-32
2022/07/31 12:23:59;;;;;;;21.55;15.80;;;19.70;99.90;;;;;;4935824;28;94251;-31
2022/07/31 12:26:26;;;;;;;19.42;17.52;;;19.70;99.90;;;;;;4934983;28;94964;-30
2022/07/31 12:29:06;;;;;;;19.35;17.35;;;19.70;99.90;;;;;;4934904;28;93093;-30
2022/07/31 12:31:50;;;;;;;21.80;18.67;;;19.60;99.90;;;;;;4934775;28;95199;-30
2022/07/31 12:34:41;;;;;;;21.50;19.40;;;19.60;99.90;;;;;;4934433;28;95116;-34
2022/07/31 12:37:15;;;;;;;22.02;19.83;;;19.50;99.90;;;;;;4934779;28;94884;-31
2022/07/31 12:39:53;;;;;;;26.02;21.33;;;19.60;99.90;;;;;;4935386;28;93619;-32
2022/07/31 12:42:21;;;;;;;;;;;19.50;99.90;;;;;;4935806;28;92609;-29
2022/07/31 12:44:48;;;;;;;22.60;20.20;;;19.50;99.90;;;;;;4936984;28;94761;-30
2022/07/31 12:47:40;;;;;;;26.02;23.48;;;19.40;99.90;;;;;;4934468;28;95034;-30
2022/07/31 12:50:08;;;;;;;26.60;22.23;;;19.50;99.90;;;;;;4935759;28;92369;-34
2022/07/31 12:52:34;;;;;;;;;;;19.50;99.90;;;;;;4946973;28;92739;-31